sensor_id;sensor_type;location;lat;lon;timestamp;temperature;humidity
22779;DHT22;11556;51.194;3.800;2023-07-24T00:00:13;18.50;99.90
22779;DHT22;11556;51.194;3.800;2023-07-24T00:02:38;18.50;99.90
22779;DHT22;11556;51.194;3.800;2023-07-24T00:05:04;18.60;99.90
22779;DHT22;11556;51.194;3.800;2023-07-24T00:07:30;18.50;99.90
22779;DHT22;11556;51.194;3.800;2023-07-24T00:09:55;18.70;99.90
22779;DHT22;11556;51.194;3.800;2023-07-24T00:12:22;18.70;99.90
22779;DHT22;11556;51.194;3.800;2023-07-24T00:14:48;18.70;99.90
22779;DHT22;11556;51.194;3.800;2023-07-24T00:17:13;18.60;99.90
22779;DHT22;11556;51.194;3.800;2023-07-24T00:19:39;18.50;99.90
22779;DHT22;11556;51.194;3.800;2023-07-24T00:22:05;18.40;99.90
22779;DHT22;11556;51.194;3.800;2023-07-24T00:24:31;18.40;99.90
22779;DHT22;11556;51.194;3.800;2023-07-24T00:26:57;18.30;99.90
22779;DHT22;11556;51.194;3.800;2023-07-24T00:29:23;18.40;99.90
22779;DHT22;11556;51.194;3.800;2023-07-24T00:31:49;18.40;99.90
22779;DHT22;11556;51.194;3.800;2023-07-24T00:34:14;18.40;99.90
22779;DHT22;11556;51.194;3.800;2023-07-24T00:36:40;18.50;99.90
22779;DHT22;11556;51.194;3.800;2023-07-24T00:39:06;18.50;99.90
22779;DHT22;11556;51.194;3.800;2023-07-24T00:41:32;18.40;99.90
22779;DHT22;11556;51.194;3.800;2023-07-24T00:43:57;18.40;99.90
22779;DHT22;11556;51.194;3.800;2023-07-24T00:46:23;18.40;99.90
22779;DHT22;11556;51.194;3.800;2023-07-24T00:48:50;18.40;99.90
22779;DHT22;11556;51.194;3.800;2023-07-24T00:51:16;18.40;99.90
22779;DHT22;11556;51.194;3.800;2023-07-24T00:53:43;18.40;99.90
22779;DHT22;11556;51.194;3.800;2023-07-24T00:56:09;18.40;99.90
22779;DHT22;11556;51.194;3.800;2023-07-24T00:58:37;18.40;99.90
22779;DHT22;11556;51.194;3.800;2023-07-24T01:01:06;18.40;99.90
22779;DHT22;11556;51.194;3.800;2023-07-24T01:03:35;18.30;99.90
22779;DHT22;11556;51.194;3.800;2023-07-24T01:06:02;18.30;99.90
22779;DHT22;11556;51.194;3.800;2023-07-24T01:08:28;18.40;99.90
22779;DHT22;11556;51.194;3.800;2023-07-24T01:10:55;18.40;99.90
22779;DHT22;11556;51.194;3.800;2023-07-24T01:13:25;18.40;99.90
22779;DHT22;11556;51.194;3.800;2023-07-24T01:16:14;18.50;99.90
22779;DHT22;11556;51.194;3.800;2023-07-24T01:18:42;18.40;99.90
22779;DHT22;11556;51.194;3.800;2023-07-24T01:21:09;18.30;99.90
22779;DHT22;11556;51.194;3.800;2023-07-24T01:23:55;18.30;99.90
22779;DHT22;11556;51.194;3.800;2023-07-24T01:26:25;18.30;99.90
22779;DHT22;11556;51.194;3.800;2023-07-24T01:28:51;18.30;99.90
22779;DHT22;11556;51.194;3.800;2023-07-24T01:31:16;18.20;99.90
22779;DHT22;11556;51.194;3.800;2023-07-24T01:33:43;18.20;99.90
22779;DHT22;11556;51.194;3.800;2023-07-24T01:36:09;18.30;99.90
22779;DHT22;11556;51.194;3.800;2023-07-24T01:38:36;18.20;99.90
22779;DHT22;11556;51.194;3.800;2023-07-24T01:41:04;18.20;99.90
22779;DHT22;11556;51.194;3.800;2023-07-24T01:43:30;18.20;99.90
22779;DHT22;11556;51.194;3.800;2023-07-24T01:45:56;18.10;99.90
22779;DHT22;11556;51.194;3.800;2023-07-24T01:48:22;18.10;99.90
22779;DHT22;11556;51.194;3.800;2023-07-24T01:50:47;18.00;99.90
22779;DHT22;11556;51.194;3.800;2023-07-24T01:53:13;17.90;99.90
22779;DHT22;11556;51.194;3.800;2023-07-24T01:55:39;17.90;99.90
22779;DHT22;11556;51.194;3.800;2023-07-24T01:58:04;17.90;99.90
22779;DHT22;11556;51.194;3.800;2023-07-24T02:00:30;17.90;99.90
22779;DHT22;11556;51.194;3.800;2023-07-24T02:02:55;17.90;99.90
22779;DHT22;11556;51.194;3.800;2023-07-24T02:05:22;17.80;99.90
22779;DHT22;11556;51.194;3.800;2023-07-24T02:07:48;17.70;99.90
22779;DHT22;11556;51.194;3.800;2023-07-24T02:10:14;17.80;99.90
22779;DHT22;11556;51.194;3.800;2023-07-24T02:12:39;17.80;99.90
22779;DHT22;11556;51.194;3.800;2023-07-24T02:15:05;17.80;99.90
22779;DHT22;11556;51.194;3.800;2023-07-24T02:17:31;17.80;99.90
22779;DHT22;11556;51.194;3.800;2023-07-24T02:19:57;17.80;99.90
22779;DHT22;11556;51.194;3.800;2023-07-24T02:22:23;17.90;99.90
22779;DHT22;11556;51.194;3.800;2023-07-24T02:24:49;17.90;99.90
22779;DHT22;11556;51.194;3.800;2023-07-24T02:27:26;17.80;99.90
22779;DHT22;11556;51.194;3.800;2023-07-24T02:29:52;17.70;99.90
22779;DHT22;11556;51.194;3.800;2023-07-24T02:32:17;17.90;99.90
22779;DHT22;11556;51.194;3.800;2023-07-24T02:34:43;17.80;99.90
22779;DHT22;11556;51.194;3.800;2023-07-24T02:37:09;17.70;99.90
22779;DHT22;11556;51.194;3.800;2023-07-24T02:39:34;17.60;99.90
22779;DHT22;11556;51.194;3.800;2023-07-24T02:42:00;17.60;99.90
22779;DHT22;11556;51.194;3.800;2023-07-24T02:44:25;17.60;99.90
22779;DHT22;11556;51.194;3.800;2023-07-24T02:46:51;17.50;99.90
22779;DHT22;11556;51.194;3.800;2023-07-24T02:49:16;17.50;99.90
22779;DHT22;11556;51.194;3.800;2023-07-24T02:51:42;17.60;99.90
22779;DHT22;11556;51.194;3.800;2023-07-24T02:54:08;17.50;99.90
22779;DHT22;11556;51.194;3.800;2023-07-24T02:56:33;17.40;99.90
22779;DHT22;11556;51.194;3.800;2023-07-24T02:58:59;17.40;99.90
22779;DHT22;11556;51.194;3.800;2023-07-24T03:01:24;17.30;99.90
22779;DHT22;11556;51.194;3.800;2023-07-24T03:03:50;17.30;99.90
22779;DHT22;11556;51.194;3.800;2023-07-24T03:06:15;17.30;99.90
22779;DHT22;11556;51.194;3.800;2023-07-24T03:08:41;17.20;99.90
22779;DHT22;11556;51.194;3.800;2023-07-24T03:11:07;17.10;99.90
22779;DHT22;11556;51.194;3.800;2023-07-24T03:13:33;17.10;99.90
22779;DHT22;11556;51.194;3.800;2023-07-24T03:15:58;17.10;99.90
22779;DHT22;11556;51.194;3.800;2023-07-24T03:18:24;17.00;99.90
22779;DHT22;11556;51.194;3.800;2023-07-24T03:20:50;17.00;99.90
22779;DHT22;11556;51.194;3.800;2023-07-24T03:23:16;17.00;99.90
22779;DHT22;11556;51.194;3.800;2023-07-24T03:25:42;16.90;99.90
22779;DHT22;11556;51.194;3.800;2023-07-24T03:28:08;16.90;99.90
22779;DHT22;11556;51.194;3.800;2023-07-24T03:30:33;16.90;99.90
22779;DHT22;11556;51.194;3.800;2023-07-24T03:32:59;16.90;99.90
22779;DHT22;11556;51.194;3.800;2023-07-24T03:35:26;16.90;99.90
22779;DHT22;11556;51.194;3.800;2023-07-24T03:37:51;16.90;99.90
22779;DHT22;11556;51.194;3.800;2023-07-24T03:40:17;16.90;99.90
22779;DHT22;11556;51.194;3.800;2023-07-24T03:42:43;16.90;99.90
22779;DHT22;11556;51.194;3.800;2023-07-24T03:45:08;16.90;99.90
22779;DHT22;11556;51.194;3.800;2023-07-24T03:47:34;16.80;99.90
22779;DHT22;11556;51.194;3.800;2023-07-24T03:50:00;16.80;99.90
22779;DHT22;11556;51.194;3.800;2023-07-24T03:52:26;16.80;99.90
22779;DHT22;11556;51.194;3.800;2023-07-24T03:54:52;16.80;99.90
22779;DHT22;11556;51.194;3.800;2023-07-24T03:57:18;16.80;99.90
22779;DHT22;11556;51.194;3.800;2023-07-24T03:59:43;16.80;99.90
22779;DHT22;11556;51.194;3.800;2023-07-24T04:02:09;16.70;99.90
22779;DHT22;11556;51.194;3.800;2023-07-24T04:04:35;16.80;99.90
22779;DHT22;11556;51.194;3.800;2023-07-24T04:07:00;16.80;99.90
22779;DHT22;11556;51.194;3.800;2023-07-24T04:09:26;16.80;99.90
22779;DHT22;11556;51.194;3.800;2023-07-24T04:11:52;16.80;99.90
22779;DHT22;11556;51.194;3.800;2023-07-24T04:14:18;16.80;99.90
22779;DHT22;11556;51.194;3.800;2023-07-24T04:16:44;16.80;99.90
22779;DHT22;11556;51.194;3.800;2023-07-24T04:19:10;16.80;99.90
22779;DHT22;11556;51.194;3.800;2023-07-24T04:21:36;16.80;99.90
22779;DHT22;11556;51.194;3.800;2023-07-24T04:24:01;16.80;99.90
22779;DHT22;11556;51.194;3.800;2023-07-24T04:26:27;16.80;99.90
22779;DHT22;11556;51.194;3.800;2023-07-24T04:28:52;16.80;99.90
22779;DHT22;11556;51.194;3.800;2023-07-24T04:31:18;16.80;99.90
22779;DHT22;11556;51.194;3.800;2023-07-24T04:33:44;16.90;99.90
22779;DHT22;11556;51.194;3.800;2023-07-24T04:36:09;16.80;99.90
22779;DHT22;11556;51.194;3.800;2023-07-24T04:38:35;16.90;99.90
22779;DHT22;11556;51.194;3.800;2023-07-24T04:41:01;16.90;99.90
22779;DHT22;11556;51.194;3.800;2023-07-24T04:43:27;17.10;99.90
22779;DHT22;11556;51.194;3.800;2023-07-24T04:45:53;17.20;99.90
22779;DHT22;11556;51.194;3.800;2023-07-24T04:48:19;17.10;99.90
22779;DHT22;11556;51.194;3.800;2023-07-24T04:50:44;17.20;99.90
22779;DHT22;11556;51.194;3.800;2023-07-24T04:53:10;17.20;99.90
22779;DHT22;11556;51.194;3.800;2023-07-24T04:55:36;17.30;99.90
22779;DHT22;11556;51.194;3.800;2023-07-24T04:58:01;17.30;99.90
22779;DHT22;11556;51.194;3.800;2023-07-24T05:00:27;17.30;99.90
22779;DHT22;11556;51.194;3.800;2023-07-24T05:02:52;17.30;99.90
22779;DHT22;11556;51.194;3.800;2023-07-24T05:05:18;17.20;99.90
22779;DHT22;11556;51.194;3.800;2023-07-24T05:07:43;17.30;99.90
22779;DHT22;11556;51.194;3.800;2023-07-24T05:10:09;17.40;99.90
22779;DHT22;11556;51.194;3.800;2023-07-24T05:12:35;17.40;99.90
22779;DHT22;11556;51.194;3.800;2023-07-24T05:15:00;17.40;99.90
22779;DHT22;11556;51.194;3.800;2023-07-24T05:17:26;17.60;99.90
22779;DHT22;11556;51.194;3.800;2023-07-24T05:19:52;17.80;99.90
22779;DHT22;11556;51.194;3.800;2023-07-24T05:22:17;17.80;99.90
22779;DHT22;11556;51.194;3.800;2023-07-24T05:24:43;17.80;99.90
22779;DHT22;11556;51.194;3.800;2023-07-24T05:27:08;17.70;99.90
22779;DHT22;11556;51.194;3.800;2023-07-24T05:29:34;17.70;99.90
22779;DHT22;11556;51.194;3.800;2023-07-24T05:31:59;17.90;99.90
22779;DHT22;11556;51.194;3.800;2023-07-24T05:34:25;17.80;99.90
22779;DHT22;11556;51.194;3.800;2023-07-24T05:36:51;18.00;99.90
22779;DHT22;11556;51.194;3.800;2023-07-24T05:39:17;18.10;99.90
22779;DHT22;11556;51.194;3.800;2023-07-24T05:41:42;18.10;99.90
22779;DHT22;11556;51.194;3.800;2023-07-24T05:44:08;18.30;99.90
22779;DHT22;11556;51.194;3.800;2023-07-24T05:46:34;18.20;99.90
22779;DHT22;11556;51.194;3.800;2023-07-24T05:48:59;18.20;99.90
22779;DHT22;11556;51.194;3.800;2023-07-24T05:51:28;18.40;99.90
22779;DHT22;11556;51.194;3.800;2023-07-24T05:53:53;18.50;99.90
22779;DHT22;11556;51.194;3.800;2023-07-24T05:56:19;18.70;99.90
22779;DHT22;11556;51.194;3.800;2023-07-24T05:58:45;18.80;99.90
22779;DHT22;11556;51.194;3.800;2023-07-24T06:01:10;18.90;99.90
22779;DHT22;11556;51.194;3.800;2023-07-24T06:03:36;19.00;99.90
22779;DHT22;11556;51.194;3.800;2023-07-24T06:06:04;19.40;99.90
22779;DHT22;11556;51.194;3.800;2023-07-24T06:08:29;19.90;99.90
22779;DHT22;11556;51.194;3.800;2023-07-24T06:10:55;20.20;99.90
22779;DHT22;11556;51.194;3.800;2023-07-24T06:13:21;21.00;99.90
22779;DHT22;11556;51.194;3.800;2023-07-24T06:15:49;22.00;99.90
22779;DHT22;11556;51.194;3.800;2023-07-24T06:18:16;22.80;99.90
22779;DHT22;11556;51.194;3.800;2023-07-24T06:20:41;23.00;99.90
22779;DHT22;11556;51.194;3.800;2023-07-24T06:23:07;23.80;99.90
22779;DHT22;11556;51.194;3.800;2023-07-24T06:25:33;24.30;99.90
22779;DHT22;11556;51.194;3.800;2023-07-24T06:27:59;24.90;99.90
22779;DHT22;11556;51.194;3.800;2023-07-24T06:30:24;24.80;99.90
22779;DHT22;11556;51.194;3.800;2023-07-24T06:32:50;23.70;99.90
22779;DHT22;11556;51.194;3.800;2023-07-24T06:35:16;23.10;99.90
22779;DHT22;11556;51.194;3.800;2023-07-24T06:37:41;22.70;99.90
22779;DHT22;11556;51.194;3.800;2023-07-24T06:40:07;22.50;99.90
22779;DHT22;11556;51.194;3.800;2023-07-24T06:42:34;22.80;99.90
22779;DHT22;11556;51.194;3.800;2023-07-24T06:45:00;23.00;99.90
22779;DHT22;11556;51.194;3.800;2023-07-24T06:47:25;23.00;99.90
22779;DHT22;11556;51.194;3.800;2023-07-24T06:49:51;23.30;99.90
22779;DHT22;11556;51.194;3.800;2023-07-24T06:52:17;22.80;99.90
22779;DHT22;11556;51.194;3.800;2023-07-24T06:54:43;22.50;99.90
22779;DHT22;11556;51.194;3.800;2023-07-24T06:57:08;22.10;99.90
22779;DHT22;11556;51.194;3.800;2023-07-24T06:59:34;21.70;99.90
22779;DHT22;11556;51.194;3.800;2023-07-24T07:02:00;21.40;99.90
22779;DHT22;11556;51.194;3.800;2023-07-24T07:04:25;21.20;99.90
22779;DHT22;11556;51.194;3.800;2023-07-24T07:06:51;20.80;99.90
22779;DHT22;11556;51.194;3.800;2023-07-24T07:09:16;20.50;99.90
22779;DHT22;11556;51.194;3.800;2023-07-24T07:11:42;20.00;99.90
22779;DHT22;11556;51.194;3.800;2023-07-24T07:14:09;19.60;99.90
22779;DHT22;11556;51.194;3.800;2023-07-24T07:16:34;19.20;99.90
22779;DHT22;11556;51.194;3.800;2023-07-24T07:19:00;19.00;99.90
22779;DHT22;11556;51.194;3.800;2023-07-24T07:21:26;18.90;99.90
22779;DHT22;11556;51.194;3.800;2023-07-24T07:23:51;18.90;99.90
22779;DHT22;11556;51.194;3.800;2023-07-24T07:26:17;18.80;99.90
22779;DHT22;11556;51.194;3.800;2023-07-24T07:28:42;18.80;99.90
22779;DHT22;11556;51.194;3.800;2023-07-24T07:31:10;18.80;99.90
22779;DHT22;11556;51.194;3.800;2023-07-24T07:33:36;18.90;99.90
22779;DHT22;11556;51.194;3.800;2023-07-24T07:36:01;18.90;99.90
22779;DHT22;11556;51.194;3.800;2023-07-24T07:38:29;19.00;99.90
22779;DHT22;11556;51.194;3.800;2023-07-24T07:40:54;19.30;99.90
22779;DHT22;11556;51.194;3.800;2023-07-24T07:43:20;19.50;99.90
22779;DHT22;11556;51.194;3.800;2023-07-24T07:45:46;19.50;99.90
22779;DHT22;11556;51.194;3.800;2023-07-24T07:48:12;19.70;99.90
22779;DHT22;11556;51.194;3.800;2023-07-24T07:50:37;19.60;99.90
22779;DHT22;11556;51.194;3.800;2023-07-24T07:53:03;19.70;99.90
22779;DHT22;11556;51.194;3.800;2023-07-24T07:55:28;19.70;99.90
22779;DHT22;11556;51.194;3.800;2023-07-24T07:57:54;19.80;99.90
22779;DHT22;11556;51.194;3.800;2023-07-24T08:00:20;20.00;99.90
22779;DHT22;11556;51.194;3.800;2023-07-24T08:02:45;20.20;99.90
22779;DHT22;11556;51.194;3.800;2023-07-24T08:05:11;20.40;99.90
22779;DHT22;11556;51.194;3.800;2023-07-24T08:07:37;20.70;99.90
22779;DHT22;11556;51.194;3.800;2023-07-24T08:10:03;21.10;99.90
22779;DHT22;11556;51.194;3.800;2023-07-24T08:12:29;21.40;99.90
22779;DHT22;11556;51.194;3.800;2023-07-24T08:14:55;21.60;99.90
22779;DHT22;11556;51.194;3.800;2023-07-24T08:17:21;21.80;99.90
22779;DHT22;11556;51.194;3.800;2023-07-24T08:19:47;21.70;99.90
22779;DHT22;11556;51.194;3.800;2023-07-24T08:22:13;21.80;99.90
22779;DHT22;11556;51.194;3.800;2023-07-24T08:24:38;21.90;99.90
22779;DHT22;11556;51.194;3.800;2023-07-24T08:27:04;21.90;99.90
22779;DHT22;11556;51.194;3.800;2023-07-24T08:29:30;21.90;99.90
22779;DHT22;11556;51.194;3.800;2023-07-24T08:31:56;21.80;99.90
22779;DHT22;11556;51.194;3.800;2023-07-24T08:34:21;21.90;99.90
22779;DHT22;11556;51.194;3.800;2023-07-24T08:36:47;22.00;99.90
22779;DHT22;11556;51.194;3.800;2023-07-24T08:39:13;22.00;99.90
22779;DHT22;11556;51.194;3.800;2023-07-24T08:41:38;22.30;99.90
22779;DHT22;11556;51.194;3.800;2023-07-24T08:44:08;22.70;99.90
22779;DHT22;11556;51.194;3.800;2023-07-24T08:46:38;22.60;99.90
22779;DHT22;11556;51.194;3.800;2023-07-24T08:49:15;23.30;99.90
22779;DHT22;11556;51.194;3.800;2023-07-24T08:51:41;23.60;99.90
22779;DHT22;11556;51.194;3.800;2023-07-24T08:54:08;23.90;99.90
22779;DHT22;11556;51.194;3.800;2023-07-24T08:56:33;24.50;99.90
22779;DHT22;11556;51.194;3.800;2023-07-24T08:58:59;25.60;99.90
22779;DHT22;11556;51.194;3.800;2023-07-24T09:01:25;25.90;99.90
22779;DHT22;11556;51.194;3.800;2023-07-24T09:03:51;26.10;99.90
22779;DHT22;11556;51.194;3.800;2023-07-24T09:06:16;26.40;99.90
22779;DHT22;11556;51.194;3.800;2023-07-24T09:08:43;26.40;99.90
22779;DHT22;11556;51.194;3.800;2023-07-24T09:11:10;26.20;99.90
22779;DHT22;11556;51.194;3.800;2023-07-24T09:13:37;26.20;99.90
22779;DHT22;11556;51.194;3.800;2023-07-24T09:16:03;26.10;99.90
22779;DHT22;11556;51.194;3.800;2023-07-24T09:18:39;25.80;99.90
22779;DHT22;11556;51.194;3.800;2023-07-24T09:21:05;25.70;99.90
22779;DHT22;11556;51.194;3.800;2023-07-24T09:23:30;25.80;99.90
22779;DHT22;11556;51.194;3.800;2023-07-24T09:25:56;26.40;99.90
22779;DHT22;11556;51.194;3.800;2023-07-24T09:28:22;26.90;99.90
22779;DHT22;11556;51.194;3.800;2023-07-24T09:30:58;26.80;99.90
22779;DHT22;11556;51.194;3.800;2023-07-24T09:33:39;26.80;99.90
22779;DHT22;11556;51.194;3.800;2023-07-24T09:36:06;27.90;99.90
22779;DHT22;11556;51.194;3.800;2023-07-24T09:38:40;28.30;99.90
22779;DHT22;11556;51.194;3.800;2023-07-24T09:41:06;28.70;99.90
22779;DHT22;11556;51.194;3.800;2023-07-24T09:43:32;29.40;99.90
22779;DHT22;11556;51.194;3.800;2023-07-24T09:46:00;29.50;99.90
22779;DHT22;11556;51.194;3.800;2023-07-24T09:48:27;29.20;99.90
22779;DHT22;11556;51.194;3.800;2023-07-24T09:50:54;28.80;99.90
22779;DHT22;11556;51.194;3.800;2023-07-24T09:53:36;28.80;99.90
22779;DHT22;11556;51.194;3.800;2023-07-24T09:56:05;28.80;99.90
22779;DHT22;11556;51.194;3.800;2023-07-24T09:58:36;28.50;99.90
22779;DHT22;11556;51.194;3.800;2023-07-24T10:01:06;28.20;99.90
22779;DHT22;11556;51.194;3.800;2023-07-24T10:03:46;28.30;99.90
22779;DHT22;11556;51.194;3.800;2023-07-24T10:06:12;28.00;99.90
22779;DHT22;11556;51.194;3.800;2023-07-24T10:08:40;27.80;99.90
22779;DHT22;11556;51.194;3.800;2023-07-24T10:11:13;27.50;99.90
22779;DHT22;11556;51.194;3.800;2023-07-24T10:13:40;27.30;99.90
22779;DHT22;11556;51.194;3.800;2023-07-24T10:16:07;27.10;99.90
22779;DHT22;11556;51.194;3.800;2023-07-24T10:18:34;27.00;99.90
22779;DHT22;11556;51.194;3.800;2023-07-24T10:21:05;26.90;99.90
22779;DHT22;11556;51.194;3.800;2023-07-24T10:23:40;27.00;99.90
22779;DHT22;11556;51.194;3.800;2023-07-24T10:26:07;27.60;99.90
22779;DHT22;11556;51.194;3.800;2023-07-24T10:28:38;28.20;99.90
22779;DHT22;11556;51.194;3.800;2023-07-24T10:31:23;28.60;98.60
22779;DHT22;11556;51.194;3.800;2023-07-24T10:33:49;27.80;99.00
22779;DHT22;11556;51.194;3.800;2023-07-24T10:36:19;27.50;99.20
22779;DHT22;11556;51.194;3.800;2023-07-24T10:38:51;27.70;99.20
22779;DHT22;11556;51.194;3.800;2023-07-24T10:41:17;27.20;99.90
22779;DHT22;11556;51.194;3.800;2023-07-24T10:43:49;26.90;99.90
22779;DHT22;11556;51.194;3.800;2023-07-24T10:46:17;26.40;99.90
22779;DHT22;11556;51.194;3.800;2023-07-24T10:48:44;26.30;99.90
22779;DHT22;11556;51.194;3.800;2023-07-24T10:51:10;26.50;99.90
22779;DHT22;11556;51.194;3.800;2023-07-24T10:53:37;26.50;99.90
22779;DHT22;11556;51.194;3.800;2023-07-24T10:56:06;26.10;99.90
22779;DHT22;11556;51.194;3.800;2023-07-24T10:58:32;25.90;99.90
22779;DHT22;11556;51.194;3.800;2023-07-24T11:00:58;25.70;99.90
22779;DHT22;11556;51.194;3.800;2023-07-24T11:03:24;26.40;99.90
22779;DHT22;11556;51.194;3.800;2023-07-24T11:05:50;26.70;99.90
22779;DHT22;11556;51.194;3.800;2023-07-24T11:08:18;27.00;99.90
22779;DHT22;11556;51.194;3.800;2023-07-24T11:10:55;27.50;99.90
22779;DHT22;11556;51.194;3.800;2023-07-24T11:13:23;28.00;99.90
22779;DHT22;11556;51.194;3.800;2023-07-24T11:15:50;27.90;98.60
22779;DHT22;11556;51.194;3.800;2023-07-24T11:18:16;26.50;99.90
22779;DHT22;11556;51.194;3.800;2023-07-24T11:20:53;25.50;99.90
22779;DHT22;11556;51.194;3.800;2023-07-24T11:23:19;25.00;99.90
22779;DHT22;11556;51.194;3.800;2023-07-24T11:25:46;24.60;99.90
22779;DHT22;11556;51.194;3.800;2023-07-24T11:28:13;24.20;99.90
22779;DHT22;11556;51.194;3.800;2023-07-24T11:30:39;23.90;99.90
22779;DHT22;11556;51.194;3.800;2023-07-24T11:33:07;23.70;99.90
22779;DHT22;11556;51.194;3.800;2023-07-24T11:35:33;23.40;99.90
22779;DHT22;11556;51.194;3.800;2023-07-24T11:38:03;23.10;99.90
22779;DHT22;11556;51.194;3.800;2023-07-24T11:40:40;23.00;99.90
22779;DHT22;11556;51.194;3.800;2023-07-24T11:43:19;23.10;99.90
22779;DHT22;11556;51.194;3.800;2023-07-24T11:45:46;23.40;99.90
22779;DHT22;11556;51.194;3.800;2023-07-24T11:48:18;23.60;99.90
22779;DHT22;11556;51.194;3.800;2023-07-24T11:50:49;23.70;99.90
22779;DHT22;11556;51.194;3.800;2023-07-24T11:53:23;24.00;99.90
22779;DHT22;11556;51.194;3.800;2023-07-24T11:55:50;24.20;99.90
22779;DHT22;11556;51.194;3.800;2023-07-24T11:58:17;24.20;99.90
22779;DHT22;11556;51.194;3.800;2023-07-24T12:00:43;24.10;99.90
22779;DHT22;11556;51.194;3.800;2023-07-24T12:03:09;24.20;99.90
22779;DHT22;11556;51.194;3.800;2023-07-24T12:05:39;24.10;99.90
22779;DHT22;11556;51.194;3.800;2023-07-24T12:08:05;23.80;99.90
22779;DHT22;11556;51.194;3.800;2023-07-24T12:10:30;23.50;99.90
22779;DHT22;11556;51.194;3.800;2023-07-24T12:12:58;23.30;99.90
22779;DHT22;11556;51.194;3.800;2023-07-24T12:15:25;23.00;99.90
22779;DHT22;11556;51.194;3.800;2023-07-24T12:17:52;22.80;99.90
22779;DHT22;11556;51.194;3.800;2023-07-24T12:20:18;22.50;99.90
22779;DHT22;11556;51.194;3.800;2023-07-24T12:22:43;22.60;99.90
22779;DHT22;11556;51.194;3.800;2023-07-24T12:25:09;23.50;99.90
22779;DHT22;11556;51.194;3.800;2023-07-24T12:27:35;24.20;99.90
22779;DHT22;11556;51.194;3.800;2023-07-24T12:30:01;24.50;99.90
22779;DHT22;11556;51.194;3.800;2023-07-24T12:32:26;24.80;99.90
22779;DHT22;11556;51.194;3.800;2023-07-24T12:34:53;24.80;99.90
22779;DHT22;11556;51.194;3.800;2023-07-24T12:37:19;24.60;99.90
22779;DHT22;11556;51.194;3.800;2023-07-24T12:39:45;24.20;99.90
22779;DHT22;11556;51.194;3.800;2023-07-24T12:42:11;23.70;99.90
22779;DHT22;11556;51.194;3.800;2023-07-24T12:44:37;23.60;99.90
22779;DHT22;11556;51.194;3.800;2023-07-24T12:47:04;23.50;99.90
22779;DHT22;11556;51.194;3.800;2023-07-24T12:49:30;23.20;99.90
22779;DHT22;11556;51.194;3.800;2023-07-24T12:51:55;23.10;99.90
22779;DHT22;11556;51.194;3.800;2023-07-24T12:54:21;22.90;99.90
22779;DHT22;11556;51.194;3.800;2023-07-24T12:56:51;22.70;99.90
22779;DHT22;11556;51.194;3.800;2023-07-24T12:59:17;22.50;99.90
22779;DHT22;11556;51.194;3.800;2023-07-24T13:01:44;22.30;99.90
22779;DHT22;11556;51.194;3.800;2023-07-24T13:04:09;22.20;99.90
22779;DHT22;11556;51.194;3.800;2023-07-24T13:06:35;22.00;99.90
22779;DHT22;11556;51.194;3.800;2023-07-24T13:09:01;21.80;99.90
22779;DHT22;11556;51.194;3.800;2023-07-24T13:11:26;21.60;99.90
22779;DHT22;11556;51.194;3.800;2023-07-24T13:13:56;21.40;99.90
22779;DHT22;11556;51.194;3.800;2023-07-24T13:16:21;21.30;99.90
22779;DHT22;11556;51.194;3.800;2023-07-24T13:18:47;21.20;99.90
22779;DHT22;11556;51.194;3.800;2023-07-24T13:21:13;21.10;99.90
22779;DHT22;11556;51.194;3.800;2023-07-24T13:23:40;20.90;99.90
22779;DHT22;11556;51.194;3.800;2023-07-24T13:26:05;20.90;99.90
22779;DHT22;11556;51.194;3.800;2023-07-24T13:28:33;20.80;99.90
22779;DHT22;11556;51.194;3.800;2023-07-24T13:30:58;20.70;99.90
22779;DHT22;11556;51.194;3.800;2023-07-24T13:33:24;20.80;99.90
22779;DHT22;11556;51.194;3.800;2023-07-24T13:35:50;20.90;99.90
22779;DHT22;11556;51.194;3.800;2023-07-24T13:38:16;21.00;99.90
22779;DHT22;11556;51.194;3.800;2023-07-24T13:40:42;21.10;99.90
22779;DHT22;11556;51.194;3.800;2023-07-24T13:43:08;21.30;99.90
22779;DHT22;11556;51.194;3.800;2023-07-24T13:45:33;21.30;99.90
22779;DHT22;11556;51.194;3.800;2023-07-24T13:47:59;21.40;99.90
22779;DHT22;11556;51.194;3.800;2023-07-24T13:50:25;21.40;99.90
22779;DHT22;11556;51.194;3.800;2023-07-24T13:52:50;21.90;99.90
22779;DHT22;11556;51.194;3.800;2023-07-24T13:55:16;22.10;99.90
22779;DHT22;11556;51.194;3.800;2023-07-24T13:57:42;22.90;99.90
22779;DHT22;11556;51.194;3.800;2023-07-24T14:00:08;23.90;99.90
22779;DHT22;11556;51.194;3.800;2023-07-24T14:02:33;24.90;99.90
22779;DHT22;11556;51.194;3.800;2023-07-24T14:04:59;25.90;99.90
22779;DHT22;11556;51.194;3.800;2023-07-24T14:07:25;26.10;99.90
22779;DHT22;11556;51.194;3.800;2023-07-24T14:09:50;26.50;99.90
22779;DHT22;11556;51.194;3.800;2023-07-24T14:12:16;26.50;99.90
22779;DHT22;11556;51.194;3.800;2023-07-24T14:14:41;26.20;99.90
22779;DHT22;11556;51.194;3.800;2023-07-24T14:17:07;26.20;99.90
22779;DHT22;11556;51.194;3.800;2023-07-24T14:19:33;26.60;99.90
22779;DHT22;11556;51.194;3.800;2023-07-24T14:21:58;26.40;99.90
22779;DHT22;11556;51.194;3.800;2023-07-24T14:24:24;26.20;99.90
22779;DHT22;11556;51.194;3.800;2023-07-24T14:26:50;25.60;99.90
22779;DHT22;11556;51.194;3.800;2023-07-24T14:29:16;24.80;99.90
22779;DHT22;11556;51.194;3.800;2023-07-24T14:31:44;24.20;99.90
22779;DHT22;11556;51.194;3.800;2023-07-24T14:34:10;23.70;99.90
22779;DHT22;11556;51.194;3.800;2023-07-24T14:36:38;23.60;99.90
22779;DHT22;11556;51.194;3.800;2023-07-24T14:39:04;23.60;99.90
22779;DHT22;11556;51.194;3.800;2023-07-24T14:41:30;23.60;99.90
22779;DHT22;11556;51.194;3.800;2023-07-24T14:43:55;23.70;99.90
22779;DHT22;11556;51.194;3.800;2023-07-24T14:46:21;23.80;99.90
22779;DHT22;11556;51.194;3.800;2023-07-24T14:48:47;23.80;99.90
22779;DHT22;11556;51.194;3.800;2023-07-24T14:51:12;24.00;99.90
22779;DHT22;11556;51.194;3.800;2023-07-24T14:53:38;24.40;99.90
22779;DHT22;11556;51.194;3.800;2023-07-24T14:56:04;24.60;99.90
22779;DHT22;11556;51.194;3.800;2023-07-24T14:58:30;24.60;99.90
22779;DHT22;11556;51.194;3.800;2023-07-24T15:00:55;24.70;99.90
22779;DHT22;11556;51.194;3.800;2023-07-24T15:03:22;24.80;99.90
22779;DHT22;11556;51.194;3.800;2023-07-24T15:05:47;24.80;99.90
22779;DHT22;11556;51.194;3.800;2023-07-24T15:08:13;24.90;99.90
22779;DHT22;11556;51.194;3.800;2023-07-24T15:10:39;24.80;99.90
22779;DHT22;11556;51.194;3.800;2023-07-24T15:13:05;24.80;99.90
22779;DHT22;11556;51.194;3.800;2023-07-24T15:15:30;24.70;99.90
22779;DHT22;11556;51.194;3.800;2023-07-24T15:17:59;24.40;99.90
22779;DHT22;11556;51.194;3.800;2023-07-24T15:20:24;24.10;99.90
22779;DHT22;11556;51.194;3.800;2023-07-24T15:22:50;23.90;99.90
22779;DHT22;11556;51.194;3.800;2023-07-24T15:25:19;23.70;99.90